Old Round Rock, Texas
Current Conditions -  °F | °C
As of 10:15 AM on Thursday 29 Jan 2015 (Local Time) from KEDC Reporting Station
Scattered Clouds Scattered Clouds  
Wind Chill: 63°   Ceiling: Unl
Heat Index: 63°   Visibility: 10mi
Dew Point: 57°   Wind: 8mph
Humidity: 82%   Direction: 230°SW
Pressure: 30.28"   Gusts: NA
Location:  30.523°N, 97.6428°W
Report Text: KEDC 291615Z AUTO 23007KT 10SM SCT015 17/14 A3028 RMK AO2
Loading
Personal Weather Stations






























Interactive Weather Map New forecast layout! Learn more

10-Day Weather Forecast

Advertisements
Track Severe Weather on mobile